sensor_id;sensor_type;location;lat;lon;timestamp;temperature;humidity
55151;DHT22;41041;43.162;20.538;2023-07-13T06:59:33;615.10;2432.00
55151;DHT22;41041;43.162;20.538;2023-07-13T07:01:59;614.90;2432.00
55151;DHT22;41041;43.162;20.538;2023-07-13T07:04:25;615.00;2432.00
55151;DHT22;41041;43.162;20.538;2023-07-13T07:06:52;615.20;2432.00
55151;DHT22;41041;43.162;20.538;2023-07-13T07:11:44;640.00;2432.00
55151;DHT22;41041;43.162;20.538;2023-07-13T07:20:06;640.10;2432.00
55151;DHT22;41041;43.162;20.538;2023-07-13T07:22:32;640.10;2432.00
55151;DHT22;41041;43.162;20.538;2023-07-13T07:25:01;640.10;2432.00
55151;DHT22;41041;43.162;20.538;2023-07-13T07:27:30;640.20;2432.00
55151;DHT22;41041;43.162;20.538;2023-07-13T07:29:57;640.30;2432.00
55151;DHT22;41041;43.162;20.538;2023-07-13T07:32:23;640.30;2432.00
55151;DHT22;41041;43.162;20.538;2023-07-13T07:34:49;640.30;2432.00
55151;DHT22;41041;43.162;20.538;2023-07-13T07:37:15;640.30;2432.00
55151;DHT22;41041;43.162;20.538;2023-07-13T07:39:43;640.40;2432.00
55151;DHT22;41041;43.162;20.538;2023-07-13T07:42:09;640.40;2432.00
55151;DHT22;41041;43.162;20.538;2023-07-13T07:48:00;640.60;2432.00
55151;DHT22;41041;43.162;20.538;2023-07-13T07:50:26;640.80;2432.00
55151;DHT22;41041;43.162;20.538;2023-07-13T07:52:52;640.90;2432.00
55151;DHT22;41041;43.162;20.538;2023-07-13T07:55:18;665.60;2432.00
55151;DHT22;41041;43.162;20.538;2023-07-13T07:57:45;665.60;2432.00
55151;DHT22;41041;43.162;20.538;2023-07-13T08:00:11;665.90;2432.00
55151;DHT22;41041;43.162;20.538;2023-07-13T08:02:37;665.90;2432.00
55151;DHT22;41041;43.162;20.538;2023-07-13T08:05:08;666.00;2432.00
55151;DHT22;41041;43.162;20.538;2023-07-13T08:07:35;666.10;2432.00
55151;DHT22;41041;43.162;20.538;2023-07-13T08:10:01;666.20;2432.00
55151;DHT22;41041;43.162;20.538;2023-07-13T08:12:33;666.40;2432.00
55151;DHT22;41041;43.162;20.538;2023-07-13T08:14:59;666.50;2432.00
55151;DHT22;41041;43.162;20.538;2023-07-13T08:19:57;691.60;2432.00
55151;DHT22;41041;43.162;20.538;2023-07-13T08:22:28;691.70;2432.00
55151;DHT22;41041;43.162;20.538;2023-07-13T08:29:59;692.00;2432.00
55151;DHT22;41041;43.162;20.538;2023-07-13T08:32:31;692.00;2432.00
55151;DHT22;41041;43.162;20.538;2023-07-13T08:35:04;691.90;2432.00
55151;DHT22;41041;43.162;20.538;2023-07-13T08:37:39;691.90;2432.00
55151;DHT22;41041;43.162;20.538;2023-07-13T08:40:05;691.90;2432.00
55151;DHT22;41041;43.162;20.538;2023-07-13T08:45:30;692.10;2432.00
55151;DHT22;41041;43.162;20.538;2023-07-13T08:48:01;716.80;2432.00
55151;DHT22;41041;43.162;20.538;2023-07-13T08:50:33;692.10;2432.00
55151;DHT22;41041;43.162;20.538;2023-07-13T09:00:15;717.00;2432.00
55151;DHT22;41041;43.162;20.538;2023-07-13T09:02:57;717.10;2432.00
55151;DHT22;41041;43.162;20.538;2023-07-13T09:09:02;717.50;2432.00
55151;DHT22;41041;43.162;20.538;2023-07-13T09:36:30;742.40;2432.00
55151;DHT22;41041;43.162;20.538;2023-07-13T09:45:05;742.50;2432.00
55151;DHT22;41041;43.162;20.538;2023-07-13T09:48:10;742.70;2432.00
55151;DHT22;41041;43.162;20.538;2023-07-13T09:50:41;742.70;2432.00
55151;DHT22;41041;43.162;20.538;2023-07-13T09:53:17;742.80;2380.80
55151;DHT22;41041;43.162;20.538;2023-07-13T09:55:45;742.80;2380.80
55151;DHT22;41041;43.162;20.538;2023-07-13T09:58:15;742.90;2432.00
55151;DHT22;41041;43.162;20.538;2023-07-13T10:00:43;742.90;2355.20
55151;DHT22;41041;43.162;20.538;2023-07-13T10:03:23;743.00;2432.00
55151;DHT22;41041;43.162;20.538;2023-07-13T10:05:50;743.00;2432.00
55151;DHT22;41041;43.162;20.538;2023-07-13T10:11:50;768.00;2432.00
55151;DHT22;41041;43.162;20.538;2023-07-13T10:17:43;768.00;2432.00
55151;DHT22;41041;43.162;20.538;2023-07-13T10:20:09;768.10;2406.40
55151;DHT22;41041;43.162;20.538;2023-07-13T10:29:28;768.40;2329.60
55151;DHT22;41041;43.162;20.538;2023-07-13T10:31:55;768.50;2355.20
55151;DHT22;41041;43.162;20.538;2023-07-13T10:34:23;768.50;2406.40
55151;DHT22;41041;43.162;20.538;2023-07-13T10:37:22;768.60;2432.00
55151;DHT22;41041;43.162;20.538;2023-07-13T10:47:04;793.70;2432.00
55151;DHT22;41041;43.162;20.538;2023-07-13T10:49:32;793.70;2406.40
55151;DHT22;41041;43.162;20.538;2023-07-13T10:51:58;793.80;2355.20
55151;DHT22;41041;43.162;20.538;2023-07-13T10:54:31;793.90;2329.60
55151;DHT22;41041;43.162;20.538;2023-07-13T10:57:21;793.90;2355.20
55151;DHT22;41041;43.162;20.538;2023-07-13T11:02:36;793.90;2278.40
55151;DHT22;41041;43.162;20.538;2023-07-13T11:05:25;793.90;2201.60
55151;DHT22;41041;43.162;20.538;2023-07-13T11:08:23;794.00;2150.40
55151;DHT22;41041;43.162;20.538;2023-07-13T11:48:42;819.30;2176.00
55151;DHT22;41041;43.162;20.538;2023-07-13T11:51:16;819.30;2227.20
55151;DHT22;41041;43.162;20.538;2023-07-13T11:53:46;819.40;2201.60
55151;DHT22;41041;43.162;20.538;2023-07-13T11:56:13;819.40;2176.00
55151;DHT22;41041;43.162;20.538;2023-07-13T11:58:40;819.40;2150.40
55151;DHT22;41041;43.162;20.538;2023-07-13T12:01:45;819.50;2150.40
55151;DHT22;41041;43.162;20.538;2023-07-13T12:07:42;819.60;2073.60
55151;DHT22;41041;43.162;20.538;2023-07-13T12:17:00;819.80;2201.60
55151;DHT22;41041;43.162;20.538;2023-07-13T12:34:02;820.00;2048.00
55151;DHT22;41041;43.162;20.538;2023-07-13T12:36:37;820.10;2048.00
55151;DHT22;41041;43.162;20.538;2023-07-13T12:39:32;844.80;2099.20
55151;DHT22;41041;43.162;20.538;2023-07-13T12:44:49;844.90;2048.00
55151;DHT22;41041;43.162;20.538;2023-07-13T12:47:23;844.90;2099.20
55151;DHT22;41041;43.162;20.538;2023-07-13T12:49:55;845.00;2048.00
55151;DHT22;41041;43.162;20.538;2023-07-13T12:52:32;845.10;1945.60
55151;DHT22;41041;43.162;20.538;2023-07-13T12:55:10;845.10;1945.60
55151;DHT22;41041;43.162;20.538;2023-07-13T13:04:43;845.60;1945.60
55151;DHT22;41041;43.162;20.538;2023-07-13T13:07:09;845.60;1945.60
55151;DHT22;41041;43.162;20.538;2023-07-13T13:09:36;845.70;2022.40
55151;DHT22;41041;43.162;20.538;2023-07-13T13:12:01;870.50;1945.60
55151;DHT22;41041;43.162;20.538;2023-07-13T13:14:27;870.50;1971.20
55151;DHT22;41041;43.162;20.538;2023-07-13T13:16:53;870.60;1920.00
55151;DHT22;41041;43.162;20.538;2023-07-13T13:22:49;870.80;1996.80
55151;DHT22;41041;43.162;20.538;2023-07-13T13:28:49;870.80;1945.60
55151;DHT22;41041;43.162;20.538;2023-07-13T13:33:52;870.90;1894.40
55151;DHT22;41041;43.162;20.538;2023-07-13T13:52:10;896.20;1996.80
55151;DHT22;41041;43.162;20.538;2023-07-13T13:54:44;896.20;2048.00
55151;DHT22;41041;43.162;20.538;2023-07-13T13:57:14;896.20;1996.80
55151;DHT22;41041;43.162;20.538;2023-07-13T14:07:36;896.40;1920.00
55151;DHT22;41041;43.162;20.538;2023-07-13T14:19:59;896.60;1920.00
55151;DHT22;41041;43.162;20.538;2023-07-13T14:22:26;921.60;1894.40
55151;DHT22;41041;43.162;20.538;2023-07-13T14:24:54;921.70;1894.40
55151;DHT22;41041;43.162;20.538;2023-07-13T14:27:20;921.70;1868.80
55151;DHT22;41041;43.162;20.538;2023-07-13T14:29:49;921.80;1843.20
55151;DHT22;41041;43.162;20.538;2023-07-13T14:34:54;921.90;1920.00
55151;DHT22;41041;43.162;20.538;2023-07-13T14:37:25;922.00;1945.60
55151;DHT22;41041;43.162;20.538;2023-07-13T14:39:51;922.10;1920.00
55151;DHT22;41041;43.162;20.538;2023-07-13T14:50:56;922.40;1843.20
55151;DHT22;41041;43.162;20.538;2023-07-13T14:53:26;947.20;1817.60
55151;DHT22;41041;43.162;20.538;2023-07-13T14:55:55;947.20;1792.00
55151;DHT22;41041;43.162;20.538;2023-07-13T14:58:31;947.20;1766.40
55151;DHT22;41041;43.162;20.538;2023-07-13T15:00:57;947.20;1766.40
55151;DHT22;41041;43.162;20.538;2023-07-13T15:03:25;947.30;1689.60
55151;DHT22;41041;43.162;20.538;2023-07-13T15:08:20;947.40;1689.60
55151;DHT22;41041;43.162;20.538;2023-07-13T15:10:46;947.50;1715.20
55151;DHT22;41041;43.162;20.538;2023-07-13T15:13:18;947.60;1689.60
55151;DHT22;41041;43.162;20.538;2023-07-13T15:15:49;947.60;1638.40
55151;DHT22;41041;43.162;20.538;2023-07-13T15:18:17;947.60;1664.00
55151;DHT22;41041;43.162;20.538;2023-07-13T15:20:45;947.70;1638.40
55151;DHT22;41041;43.162;20.538;2023-07-13T15:23:30;947.90;1612.80
55151;DHT22;41041;43.162;20.538;2023-07-13T15:25:56;948.10;1612.80
55151;DHT22;41041;43.162;20.538;2023-07-13T15:28:22;972.80;1689.60
55151;DHT22;41041;43.162;20.538;2023-07-13T15:31:18;973.10;1587.20
55151;DHT22;41041;43.162;20.538;2023-07-13T15:33:44;973.50;1638.40
55151;DHT22;41041;43.162;20.538;2023-07-13T15:36:10;973.50;1638.40
55151;DHT22;41041;43.162;20.538;2023-07-13T15:38:47;973.60;1612.80
55151;DHT22;41041;43.162;20.538;2023-07-13T15:41:20;973.50;1587.20
55151;DHT22;41041;43.162;20.538;2023-07-13T15:43:54;998.40;1587.20
55151;DHT22;41041;43.162;20.538;2023-07-13T16:53:59;948.00;1894.40
55151;DHT22;41041;43.162;20.538;2023-07-13T16:59:29;947.70;1868.80
55151;DHT22;41041;43.162;20.538;2023-07-13T17:05:42;947.40;1868.80
55151;DHT22;41041;43.162;20.538;2023-07-13T17:08:27;922.40;1920.00
55151;DHT22;41041;43.162;20.538;2023-07-13T17:11:26;922.40;1868.80
55151;DHT22;41041;43.162;20.538;2023-07-13T17:13:59;922.00;1920.00
55151;DHT22;41041;43.162;20.538;2023-07-13T17:16:26;921.90;1894.40
55151;DHT22;41041;43.162;20.538;2023-07-13T17:18:56;921.90;1920.00
55151;DHT22;41041;43.162;20.538;2023-07-13T17:27:02;896.80;1971.20
55151;DHT22;41041;43.162;20.538;2023-07-13T17:29:37;896.50;1945.60
55151;DHT22;41041;43.162;20.538;2023-07-13T17:32:08;896.20;1945.60
55151;DHT22;41041;43.162;20.538;2023-07-13T17:34:42;871.30;1996.80
55151;DHT22;41041;43.162;20.538;2023-07-13T17:39:55;870.80;2073.60
55151;DHT22;41041;43.162;20.538;2023-07-13T17:42:27;870.60;2073.60
55151;DHT22;41041;43.162;20.538;2023-07-13T17:44:59;870.40;2022.40
55151;DHT22;41041;43.162;20.538;2023-07-13T17:53:38;845.00;2124.80
55151;DHT22;41041;43.162;20.538;2023-07-13T17:56:35;820.10;2124.80
55151;DHT22;41041;43.162;20.538;2023-07-13T18:01:57;819.70;2150.40
55151;DHT22;41041;43.162;20.538;2023-07-13T18:04:24;819.50;2176.00
55151;DHT22;41041;43.162;20.538;2023-07-13T18:06:51;819.20;2150.40
55151;DHT22;41041;43.162;20.538;2023-07-13T18:09:23;794.40;2150.40
55151;DHT22;41041;43.162;20.538;2023-07-13T18:11:52;794.10;2176.00
55151;DHT22;41041;43.162;20.538;2023-07-13T18:14:18;793.90;2150.40
55151;DHT22;41041;43.162;20.538;2023-07-13T18:16:54;793.70;2124.80
55151;DHT22;41041;43.162;20.538;2023-07-13T18:19:29;793.60;2150.40
55151;DHT22;41041;43.162;20.538;2023-07-13T18:21:58;768.80;2099.20
55151;DHT22;41041;43.162;20.538;2023-07-13T18:24:23;768.70;2099.20
55151;DHT22;41041;43.162;20.538;2023-07-13T18:26:49;768.50;2150.40
55151;DHT22;41041;43.162;20.538;2023-07-13T18:29:15;768.30;2176.00
55151;DHT22;41041;43.162;20.538;2023-07-13T18:31:42;768.00;2201.60
55151;DHT22;41041;43.162;20.538;2023-07-13T18:34:09;768.00;2201.60
55151;DHT22;41041;43.162;20.538;2023-07-13T18:36:36;743.10;2201.60
55151;DHT22;41041;43.162;20.538;2023-07-13T18:41:34;742.90;2176.00
55151;DHT22;41041;43.162;20.538;2023-07-13T18:44:08;742.80;2201.60
55151;DHT22;41041;43.162;20.538;2023-07-13T18:46:33;742.70;2278.40
55151;DHT22;41041;43.162;20.538;2023-07-13T18:49:01;742.60;2278.40
55151;DHT22;41041;43.162;20.538;2023-07-13T18:51:27;742.50;2252.80
55151;DHT22;41041;43.162;20.538;2023-07-13T18:53:55;742.40;2252.80
55151;DHT22;41041;43.162;20.538;2023-07-13T18:56:24;742.40;2201.60
55151;DHT22;41041;43.162;20.538;2023-07-13T19:06:31;717.20;2278.40
55151;DHT22;41041;43.162;20.538;2023-07-13T19:09:04;717.30;2227.20
55151;DHT22;41041;43.162;20.538;2023-07-13T19:11:30;717.10;2252.80
55151;DHT22;41041;43.162;20.538;2023-07-13T19:13:56;717.10;2252.80
55151;DHT22;41041;43.162;20.538;2023-07-13T19:16:21;717.00;2227.20
55151;DHT22;41041;43.162;20.538;2023-07-13T19:18:53;716.90;2304.00
55151;DHT22;41041;43.162;20.538;2023-07-13T19:21:50;716.80;2304.00
55151;DHT22;41041;43.162;20.538;2023-07-13T19:24:24;692.10;2227.20
55151;DHT22;41041;43.162;20.538;2023-07-13T19:26:53;692.10;2176.00
55151;DHT22;41041;43.162;20.538;2023-07-13T19:29:22;692.00;2201.60
55151;DHT22;41041;43.162;20.538;2023-07-13T19:31:49;692.00;2201.60
55151;DHT22;41041;43.162;20.538;2023-07-13T19:34:21;691.90;2201.60
55151;DHT22;41041;43.162;20.538;2023-07-13T19:36:48;691.80;2252.80
55151;DHT22;41041;43.162;20.538;2023-07-13T19:39:37;691.80;2227.20
55151;DHT22;41041;43.162;20.538;2023-07-13T19:42:15;691.60;2252.80
55151;DHT22;41041;43.162;20.538;2023-07-13T19:44:41;691.50;2227.20
55151;DHT22;41041;43.162;20.538;2023-07-13T19:47:18;691.50;2227.20
55151;DHT22;41041;43.162;20.538;2023-07-13T19:49:44;691.50;2252.80
55151;DHT22;41041;43.162;20.538;2023-07-13T19:52:19;691.50;2201.60
55151;DHT22;41041;43.162;20.538;2023-07-13T19:54:50;691.50;2278.40
55151;DHT22;41041;43.162;20.538;2023-07-13T19:57:19;691.40;2201.60
55151;DHT22;41041;43.162;20.538;2023-07-13T19:59:46;691.40;2278.40
55151;DHT22;41041;43.162;20.538;2023-07-13T20:02:18;691.20;2278.40
55151;DHT22;41041;43.162;20.538;2023-07-13T20:04:44;691.20;2201.60
55151;DHT22;41041;43.162;20.538;2023-07-13T20:09:40;691.30;2304.00
55151;DHT22;41041;43.162;20.538;2023-07-13T20:12:15;666.50;2304.00
55151;DHT22;41041;43.162;20.538;2023-07-13T20:14:43;666.30;2304.00
55151;DHT22;41041;43.162;20.538;2023-07-13T20:17:34;666.20;2252.80
55151;DHT22;41041;43.162;20.538;2023-07-13T20:20:01;666.20;2278.40
55151;DHT22;41041;43.162;20.538;2023-07-13T20:22:28;666.20;2304.00
55151;DHT22;41041;43.162;20.538;2023-07-13T20:24:56;666.20;2252.80
55151;DHT22;41041;43.162;20.538;2023-07-13T20:27:22;666.20;2227.20
55151;DHT22;41041;43.162;20.538;2023-07-13T20:29:48;666.40;2201.60
55151;DHT22;41041;43.162;20.538;2023-07-13T20:32:15;666.40;2227.20
55151;DHT22;41041;43.162;20.538;2023-07-13T20:34:41;666.40;2304.00
55151;DHT22;41041;43.162;20.538;2023-07-13T20:37:22;666.40;2329.60
55151;DHT22;41041;43.162;20.538;2023-07-13T20:39:50;666.20;2329.60
55151;DHT22;41041;43.162;20.538;2023-07-13T20:42:16;666.10;2406.40
55151;DHT22;41041;43.162;20.538;2023-07-13T21:02:08;666.30;2355.20
55151;DHT22;41041;43.162;20.538;2023-07-13T21:04:36;666.10;2380.80
55151;DHT22;41041;43.162;20.538;2023-07-13T21:07:02;665.80;2406.40
55151;DHT22;41041;43.162;20.538;2023-07-13T21:09:28;665.70;2406.40
55151;DHT22;41041;43.162;20.538;2023-07-13T21:15:18;665.60;2406.40
55151;DHT22;41041;43.162;20.538;2023-07-13T21:17:46;665.60;2380.80
55151;DHT22;41041;43.162;20.538;2023-07-13T21:20:24;640.80;2355.20
55151;DHT22;41041;43.162;20.538;2023-07-13T21:22:54;640.80;2355.20
55151;DHT22;41041;43.162;20.538;2023-07-13T21:25:31;640.90;2380.80
55151;DHT22;41041;43.162;20.538;2023-07-13T21:27:59;640.80;2380.80
55151;DHT22;41041;43.162;20.538;2023-07-13T21:30:34;640.90;2406.40
55151;DHT22;41041;43.162;20.538;2023-07-13T21:33:02;640.90;2406.40
55151;DHT22;41041;43.162;20.538;2023-07-13T21:35:36;640.80;2432.00
55151;DHT22;41041;43.162;20.538;2023-07-13T21:41:32;640.80;2406.40
55151;DHT22;41041;43.162;20.538;2023-07-13T21:43:58;640.80;2432.00
55151;DHT22;41041;43.162;20.538;2023-07-13T21:46:27;640.60;2432.00
55151;DHT22;41041;43.162;20.538;2023-07-13T21:48:55;640.50;2432.00
55151;DHT22;41041;43.162;20.538;2023-07-13T21:51:24;640.50;2432.00
55151;DHT22;41041;43.162;20.538;2023-07-13T21:53:52;640.50;2432.00
55151;DHT22;41041;43.162;20.538;2023-07-13T21:56:22;640.50;2432.00
55151;DHT22;41041;43.162;20.538;2023-07-13T21:58:57;640.50;2432.00
55151;DHT22;41041;43.162;20.538;2023-07-13T22:01:27;640.30;2432.00
55151;DHT22;41041;43.162;20.538;2023-07-13T22:03:56;640.40;2432.00
55151;DHT22;41041;43.162;20.538;2023-07-13T22:06:25;640.30;2432.00
55151;DHT22;41041;43.162;20.538;2023-07-13T22:08:55;640.30;2432.00
55151;DHT22;41041;43.162;20.538;2023-07-13T22:11:30;640.30;2432.00
55151;DHT22;41041;43.162;20.538;2023-07-13T22:14:01;640.10;2432.00
55151;DHT22;41041;43.162;20.538;2023-07-13T22:16:32;640.10;2432.00
55151;DHT22;41041;43.162;20.538;2023-07-13T22:19:12;640.00;2432.00
55151;DHT22;41041;43.162;20.538;2023-07-13T22:29:24;640.30;2432.00
55151;DHT22;41041;43.162;20.538;2023-07-13T22:31:52;640.30;2432.00
55151;DHT22;41041;43.162;20.538;2023-07-13T22:49:28;640.10;2432.00
55151;DHT22;41041;43.162;20.538;2023-07-13T22:51:56;615.10;2432.00
55151;DHT22;41041;43.162;20.538;2023-07-13T22:54:24;615.00;2432.00
